createdAt,value
2022-12-05T00:00:39.241Z,19.88
2022-12-05T00:06:14.166Z,20.65
2022-12-05T00:08:42.261Z,20.20
2022-12-05T00:11:14.166Z,21.95
2022-12-05T00:13:42.351Z,21.58
2022-12-05T00:16:10.710Z,22.13
2022-12-05T00:18:38.663Z,24.05
2022-12-05T00:21:06.210Z,25.90
2022-12-05T00:23:34.069Z,21.08
2022-12-05T00:26:02.236Z,24.95
2022-12-05T00:28:31.063Z,24.00
2022-12-05T00:31:01.761Z,25.27
2022-12-05T00:36:33.612Z,25.63
2022-12-05T00:39:02.062Z,27.13
2022-12-05T00:41:29.840Z,30.33
2022-12-05T00:43:58.857Z,30.15
2022-12-05T00:46:27.203Z,31.42
2022-12-05T00:48:55.936Z,32.72
2022-12-05T00:51:27.637Z,28.23
2022-12-05T00:53:57.715Z,27.88
2022-12-05T00:56:26.054Z,27.90
2022-12-05T00:58:54.920Z,24.90
2022-12-05T01:01:23.674Z,23.67
2022-12-05T01:03:52.634Z,24.13
2022-12-05T01:06:20.031Z,26.88
2022-12-05T01:08:47.803Z,26.02
2022-12-05T01:11:16.180Z,24.25
2022-12-05T01:13:44.192Z,22.08
2022-12-05T01:16:19.128Z,23.70
2022-12-05T01:18:47.016Z,22.27
2022-12-05T01:21:30.721Z,21.10
2022-12-05T01:24:12.500Z,19.23
2022-12-05T01:26:41.226Z,21.13
2022-12-05T01:29:08.978Z,18.42
2022-12-05T01:31:37.378Z,19.70
2022-12-05T01:34:06.197Z,18.35
2022-12-05T01:36:52.240Z,18.50
2022-12-05T01:43:02.279Z,15.93
2022-12-05T01:45:37.884Z,19.40
2022-12-05T01:48:08.316Z,18.30
2022-12-05T01:50:36.187Z,20.45
2022-12-05T01:53:04.006Z,20.80
2022-12-05T01:55:31.861Z,19.95
2022-12-05T01:58:00.484Z,21.30
2022-12-05T02:00:28.090Z,27.70
2022-12-05T02:03:04.454Z,23.27
2022-12-05T02:05:33.570Z,23.52
2022-12-05T02:08:02.024Z,22.23
2022-12-05T02:10:31.472Z,22.67
2022-12-05T02:13:03.503Z,20.83
2022-12-05T02:18:58.931Z,21.35
2022-12-05T02:21:32.329Z,21.38
2022-12-05T02:24:18.348Z,22.73
2022-12-05T02:26:55.915Z,22.67
2022-12-05T02:36:31.338Z,22.63
2022-12-05T02:39:22.005Z,25.13
2022-12-05T02:41:55.133Z,23.30
2022-12-05T02:44:36.069Z,22.65
2022-12-05T02:47:04.587Z,25.20
2022-12-05T02:49:34.970Z,22.90
2022-12-05T02:52:03.262Z,21.38
2022-12-05T02:54:33.524Z,22.63
2022-12-05T02:57:00.940Z,22.83
2022-12-05T02:59:28.988Z,20.60
2022-12-05T03:01:56.369Z,21.63
2022-12-05T03:04:24.982Z,21.88
2022-12-05T03:06:52.302Z,20.77
2022-12-05T03:09:25.706Z,20.27
2022-12-05T03:11:59.878Z,21.95
2022-12-05T03:14:31.514Z,21.65
2022-12-05T03:17:01.571Z,19.60
2022-12-05T03:19:33.689Z,19.48
2022-12-05T03:25:22.843Z,19.13
2022-12-05T03:27:52.886Z,16.92
2022-12-05T03:30:22.115Z,18.65
2022-12-05T03:32:54.959Z,19.08
2022-12-05T03:35:27.480Z,17.98
2022-12-05T03:37:56.964Z,19.63
2022-12-05T03:40:31.752Z,14.95
2022-12-05T03:43:07.814Z,18.15
2022-12-05T03:45:39.286Z,18.48
2022-12-05T03:48:09.627Z,16.75
2022-12-05T03:50:39.745Z,16.80
2022-12-05T03:53:28.579Z,18.10
2022-12-05T03:56:01.694Z,19.20
2022-12-05T03:58:31.960Z,18.17
2022-12-05T04:01:01.418Z,17.08
2022-12-05T04:03:38.430Z,18.17
2022-12-05T04:06:32.210Z,18.67
2022-12-05T04:09:02.468Z,17.85
2022-12-05T04:11:32.470Z,16.30
2022-12-05T04:14:02.343Z,17.70
2022-12-05T04:16:33.792Z,16.25
2022-12-05T04:19:16.188Z,19.75
2022-12-05T04:21:47.856Z,17.17
2022-12-05T04:24:21.119Z,15.65
2022-12-05T04:26:51.863Z,16.40
2022-12-05T04:29:30.828Z,18.83
2022-12-05T04:32:01.239Z,18.20
2022-12-05T04:34:29.908Z,17.95
2022-12-05T04:37:01.581Z,17.25
2022-12-05T04:39:58.352Z,16.05
2022-12-05T04:42:27.120Z,17.70
2022-12-05T04:45:03.389Z,18.63
2022-12-05T04:47:42.135Z,15.05
2022-12-05T04:50:10.237Z,16.58
2022-12-05T04:52:38.965Z,16.15
2022-12-05T04:55:06.424Z,15.30
2022-12-05T05:01:17.253Z,16.17
2022-12-05T05:04:07.261Z,15.63
2022-12-05T05:06:36.971Z,15.00
2022-12-05T05:09:05.044Z,17.02
2022-12-05T05:11:33.827Z,18.08
2022-12-05T05:14:01.983Z,16.77
2022-12-05T05:16:33.683Z,17.00
2022-12-05T05:19:01.345Z,16.70
2022-12-05T05:21:30.624Z,17.23
2022-12-05T05:23:58.729Z,16.90
2022-12-05T05:26:26.464Z,16.20
2022-12-05T05:28:54.071Z,16.98
2022-12-05T05:31:21.706Z,16.70
2022-12-05T05:33:50.273Z,16.70
2022-12-05T05:36:18.028Z,17.30
2022-12-05T05:38:46.843Z,16.38
2022-12-05T05:41:15.366Z,17.48
2022-12-05T05:43:43.437Z,17.10
2022-12-05T05:46:11.712Z,16.85
2022-12-05T05:48:40.062Z,18.10
2022-12-05T05:51:08.201Z,15.52
2022-12-05T05:53:35.894Z,16.23
2022-12-05T05:56:07.676Z,17.08
2022-12-05T05:58:35.634Z,14.82
2022-12-05T06:01:10.218Z,14.20
2022-12-05T06:03:37.997Z,15.82
2022-12-05T06:06:06.963Z,16.08
2022-12-05T06:08:44.982Z,15.98
2022-12-05T06:11:13.573Z,14.68
2022-12-05T06:13:54.490Z,16.02
2022-12-05T06:16:21.985Z,15.43
2022-12-05T06:18:49.738Z,15.43
2022-12-05T06:21:17.281Z,15.57
2022-12-05T06:23:45.324Z,14.23
2022-12-05T06:26:14.491Z,14.60
2022-12-05T06:28:42.538Z,14.68
2022-12-05T06:31:10.833Z,14.70
2022-12-05T06:33:39.043Z,19.65
2022-12-05T06:36:10.813Z,16.23
2022-12-05T06:38:42.055Z,16.02
2022-12-05T06:41:11.268Z,15.17
2022-12-05T06:43:38.848Z,15.70
2022-12-05T06:49:38.528Z,15.48
2022-12-05T06:55:37.829Z,16.92
2022-12-05T06:58:05.459Z,15.23
2022-12-05T07:00:32.906Z,15.80
2022-12-05T07:06:11.503Z,13.70
2022-12-05T07:08:39.265Z,13.50
2022-12-05T07:11:06.837Z,16.38
2022-12-05T07:13:34.437Z,15.98
2022-12-05T07:16:01.872Z,14.55
2022-12-05T07:18:29.489Z,14.07
2022-12-05T07:21:13.633Z,16.65
2022-12-05T07:23:57.141Z,21.88
2022-12-05T07:26:32.290Z,19.67
2022-12-05T07:28:59.887Z,21.90
2022-12-05T07:31:27.295Z,25.23
2022-12-05T07:40:53.111Z,20.25
2022-12-05T07:43:20.478Z,20.05
2022-12-05T07:45:48.227Z,28.77
2022-12-05T07:48:18.470Z,21.42
2022-12-05T07:50:46.774Z,23.13
2022-12-05T07:53:14.092Z,19.15
2022-12-05T07:55:41.696Z,23.63
2022-12-05T07:58:09.134Z,25.85
2022-12-05T08:00:36.723Z,23.05
2022-12-05T08:03:04.097Z,25.50
2022-12-05T08:05:33.233Z,20.73
2022-12-05T08:08:00.698Z,32.42
2022-12-05T08:10:28.469Z,22.75
2022-12-05T08:12:55.793Z,22.70
2022-12-05T08:15:23.457Z,20.73
2022-12-05T08:17:50.857Z,38.38
2022-12-05T08:20:18.608Z,26.30
2022-12-05T08:22:46.007Z,30.67
2022-12-05T08:25:13.625Z,27.27
2022-12-05T08:27:41.085Z,31.15
2022-12-05T08:30:08.839Z,16.33
2022-12-05T08:32:36.223Z,19.40
2022-12-05T08:35:03.938Z,33.60
2022-12-05T08:37:31.270Z,17.73
2022-12-05T08:39:59.100Z,16.23
2022-12-05T08:42:27.485Z,15.35
2022-12-05T08:44:55.341Z,17.08
2022-12-05T08:47:22.870Z,21.88
2022-12-05T08:49:50.540Z,20.17
2022-12-05T08:52:17.919Z,20.85
2022-12-05T08:54:45.610Z,23.77
2022-12-05T08:57:12.999Z,18.23
2022-12-05T08:59:40.698Z,21.05
2022-12-05T09:02:08.588Z,19.25
2022-12-05T09:04:36.312Z,20.17
2022-12-05T09:07:03.664Z,17.65
2022-12-05T09:09:31.426Z,23.10
2022-12-05T09:11:58.802Z,18.85
2022-12-05T09:14:26.655Z,18.05
2022-12-05T09:16:54.101Z,19.52
2022-12-05T09:19:21.751Z,19.67
2022-12-05T09:21:49.177Z,19.73
2022-12-05T09:24:16.931Z,21.65
2022-12-05T09:26:44.410Z,18.02
2022-12-05T09:29:16.852Z,17.27
2022-12-05T09:31:55.271Z,19.05
2022-12-05T09:34:23.014Z,19.92
2022-12-05T09:36:50.390Z,18.85
2022-12-05T09:39:20.860Z,18.83
2022-12-05T09:42:03.390Z,19.08
2022-12-05T09:44:51.588Z,20.50
2022-12-05T09:47:27.937Z,17.65
2022-12-05T09:49:57.464Z,17.25
2022-12-05T09:53:09.210Z,18.60
2022-12-05T09:56:00.527Z,18.33
2022-12-05T09:58:46.049Z,19.05
2022-12-05T10:01:19.822Z,19.55
2022-12-05T10:03:52.397Z,22.85
2022-12-05T10:06:27.837Z,19.08
2022-12-05T10:08:57.968Z,21.38
2022-12-05T10:11:32.471Z,20.10
2022-12-05T10:14:13.460Z,19.90
2022-12-05T10:16:47.091Z,19.67
2022-12-05T10:19:33.685Z,20.60
2022-12-05T10:22:24.828Z,19.92
2022-12-05T10:25:12.346Z,20.55
2022-12-05T10:28:00.044Z,19.50
2022-12-05T10:30:29.587Z,20.10
2022-12-05T10:33:05.020Z,20.95
2022-12-05T10:35:37.911Z,21.27
2022-12-05T10:38:14.360Z,20.85
2022-12-05T10:40:43.934Z,21.15
2022-12-05T10:43:14.464Z,20.63
2022-12-05T10:45:43.702Z,21.25
2022-12-05T10:48:12.333Z,18.92
2022-12-05T10:50:39.739Z,19.75
2022-12-05T10:53:07.880Z,19.58
2022-12-05T10:55:37.033Z,19.95
2022-12-05T10:58:16.981Z,19.45
2022-12-05T11:00:46.925Z,23.85
2022-12-05T11:03:35.468Z,20.92
2022-12-05T11:06:14.456Z,23.30
2022-12-05T11:09:04.297Z,21.02
2022-12-05T11:11:33.487Z,23.17
2022-12-05T11:14:02.667Z,23.20
2022-12-05T11:16:31.777Z,22.27
2022-12-05T11:19:20.789Z,23.20
2022-12-05T11:21:51.397Z,24.67
2022-12-05T11:24:38.186Z,23.55
2022-12-05T11:27:14.137Z,22.20
2022-12-05T11:29:42.378Z,22.60
2022-12-05T11:32:20.029Z,22.70
2022-12-05T11:38:25.153Z,23.52
2022-12-05T11:40:58.661Z,24.58
2022-12-05T11:43:41.103Z,22.17
2022-12-05T11:46:30.029Z,27.27
2022-12-05T11:49:15.976Z,29.02
2022-12-05T11:51:47.432Z,24.48
2022-12-05T11:58:05.690Z,23.00
2022-12-05T12:00:33.291Z,36.47
2022-12-05T12:06:25.066Z,23.40
2022-12-05T12:09:04.337Z,24.02
2022-12-05T12:11:36.641Z,22.48
2022-12-05T12:14:22.554Z,23.95
2022-12-05T12:16:50.460Z,24.17
2022-12-05T12:19:20.889Z,25.52
2022-12-05T12:21:54.593Z,23.50
2022-12-05T12:24:30.945Z,27.48
2022-12-05T12:26:58.623Z,31.60
2022-12-05T12:29:37.956Z,25.52
2022-12-05T12:32:16.318Z,31.58
2022-12-05T12:34:43.820Z,30.38
2022-12-05T12:37:11.694Z,24.30
2022-12-05T12:39:44.829Z,23.02
2022-12-05T12:42:15.331Z,24.50
2022-12-05T12:44:42.766Z,24.98
2022-12-05T12:47:29.003Z,23.05
2022-12-05T12:49:59.302Z,23.65
2022-12-05T12:59:21.403Z,24.00
2022-12-05T13:01:52.780Z,23.48
2022-12-05T13:04:25.285Z,21.35
2022-12-05T13:06:55.629Z,21.63
2022-12-05T13:09:38.245Z,22.05
2022-12-05T13:12:16.692Z,24.13
2022-12-05T13:14:49.999Z,21.02
2022-12-05T13:17:19.166Z,22.67
2022-12-05T13:19:48.452Z,21.48
2022-12-05T13:22:17.589Z,28.02
2022-12-05T13:24:55.108Z,22.42
2022-12-05T13:27:26.689Z,22.80
2022-12-05T13:30:03.405Z,24.30
2022-12-05T13:32:35.308Z,23.50
2022-12-05T13:35:08.172Z,23.45
2022-12-05T13:37:37.082Z,25.40
2022-12-05T13:40:05.085Z,38.97
2022-12-05T13:42:33.067Z,25.45
2022-12-05T13:45:19.588Z,21.33
2022-12-05T13:47:55.821Z,25.00
2022-12-05T13:50:33.650Z,23.10
2022-12-05T13:53:06.325Z,23.73
2022-12-05T13:55:37.999Z,23.88
2022-12-05T13:58:20.533Z,24.63
2022-12-05T14:00:47.958Z,27.85
2022-12-05T14:03:17.849Z,28.17
2022-12-05T14:05:51.430Z,28.75
2022-12-05T14:12:01.335Z,28.40
2022-12-05T14:14:47.644Z,25.08
2022-12-05T14:17:15.115Z,21.60
2022-12-05T14:20:05.496Z,24.98
2022-12-05T14:22:41.106Z,28.17
2022-12-05T14:25:11.511Z,45.20
2022-12-05T14:28:17.313Z,39.28
2022-12-05T14:30:54.148Z,26.83
2022-12-05T14:33:22.476Z,26.17
2022-12-05T14:35:51.676Z,23.95
2022-12-05T14:38:29.559Z,21.48
2022-12-05T14:41:11.502Z,21.65
2022-12-05T14:43:39.321Z,21.77
2022-12-05T14:46:25.087Z,23.92
2022-12-05T14:48:52.511Z,22.23
2022-12-05T14:51:25.969Z,22.45
2022-12-05T14:53:53.512Z,23.52
2022-12-05T14:56:23.063Z,24.50
2022-12-05T14:58:59.551Z,23.65
2022-12-05T15:01:29.223Z,26.00
2022-12-05T15:04:08.184Z,29.13
2022-12-05T15:06:46.447Z,30.48
2022-12-05T15:09:43.083Z,32.17
2022-12-05T15:12:19.948Z,27.85
2022-12-05T15:14:54.589Z,26.58
2022-12-05T15:17:25.451Z,24.50
2022-12-05T15:19:56.898Z,23.70
2022-12-05T15:22:26.761Z,24.27
2022-12-05T15:24:54.136Z,22.90
2022-12-05T15:27:22.006Z,23.83
2022-12-05T15:29:53.227Z,25.10
2022-12-05T15:32:24.636Z,28.07
2022-12-05T15:35:02.283Z,27.25
2022-12-05T15:37:41.845Z,27.45
2022-12-05T15:40:09.178Z,29.25
2022-12-05T15:42:44.742Z,30.25
2022-12-05T15:45:12.135Z,28.13
2022-12-05T15:47:43.759Z,29.98
2022-12-05T15:50:14.087Z,30.80
2022-12-05T15:52:44.833Z,27.27
2022-12-05T15:55:14.502Z,31.05
2022-12-05T15:57:48.771Z,29.02
2022-12-05T16:00:17.652Z,30.20
2022-12-05T16:02:47.585Z,26.60
2022-12-05T16:05:21.045Z,28.00
2022-12-05T16:07:49.618Z,26.83
2022-12-05T16:10:18.120Z,28.02
2022-12-05T16:12:45.819Z,28.65
2022-12-05T16:15:26.729Z,26.88
2022-12-05T16:18:00.942Z,27.45
2022-12-05T16:20:32.719Z,29.92
2022-12-05T16:23:02.537Z,29.95
2022-12-05T16:25:36.603Z,28.48
2022-12-05T16:28:07.330Z,31.90
2022-12-05T16:30:35.525Z,30.05
2022-12-05T16:33:03.511Z,28.13
2022-12-05T16:35:33.793Z,28.85
2022-12-05T16:38:04.258Z,28.65
2022-12-05T16:40:31.689Z,29.50
2022-12-05T16:43:03.552Z,27.90
2022-12-05T16:45:38.523Z,29.52
2022-12-05T16:48:14.328Z,28.23
2022-12-05T16:50:41.868Z,27.33
2022-12-05T16:53:09.531Z,27.90
2022-12-05T16:55:37.466Z,27.55
2022-12-05T16:58:05.976Z,26.10
2022-12-05T17:00:33.491Z,31.75
2022-12-05T17:03:25.625Z,30.92
2022-12-05T17:05:48.626Z,29.63
2022-12-05T17:08:16.369Z,34.22
2022-12-05T17:10:43.926Z,33.30
2022-12-05T17:13:14.236Z,30.98
2022-12-05T17:15:42.041Z,31.23
2022-12-05T17:18:14.229Z,29.95
2022-12-05T17:20:42.723Z,35.40
2022-12-05T17:23:11.636Z,30.92
2022-12-05T17:32:25.175Z,27.42
2022-12-05T17:34:52.627Z,27.70
2022-12-05T17:37:20.261Z,29.60
2022-12-05T17:39:47.736Z,30.05
2022-12-05T17:42:15.424Z,28.58
2022-12-05T17:44:42.796Z,24.40
2022-12-05T17:47:10.516Z,25.73
2022-12-05T17:49:37.921Z,27.02
2022-12-05T17:52:22.309Z,27.23
2022-12-05T17:54:50.390Z,30.35
2022-12-05T17:57:18.039Z,31.98
2022-12-05T17:59:45.422Z,29.75
2022-12-05T18:02:13.096Z,32.20
2022-12-05T18:04:40.449Z,28.27
2022-12-05T18:07:08.150Z,27.85
2022-12-05T18:09:35.488Z,28.95
2022-12-05T18:12:03.281Z,28.23
2022-12-05T18:14:30.761Z,29.30
2022-12-05T18:16:58.601Z,28.95
2022-12-05T18:19:25.967Z,27.75
2022-12-05T18:21:53.613Z,29.38
2022-12-05T18:24:21.109Z,27.42
2022-12-05T18:26:49.042Z,26.75
2022-12-05T18:29:16.530Z,27.48
2022-12-05T18:31:44.239Z,28.33
2022-12-05T18:34:11.759Z,26.27
2022-12-05T18:36:39.440Z,26.35
2022-12-05T18:39:06.885Z,26.02
2022-12-05T18:41:34.588Z,27.92
2022-12-05T18:44:01.988Z,25.83
2022-12-05T18:46:29.872Z,26.35
2022-12-05T18:49:01.745Z,25.75
2022-12-05T18:51:31.121Z,25.40
2022-12-05T18:53:58.487Z,24.33
2022-12-05T18:56:30.628Z,26.75
2022-12-05T18:58:59.513Z,26.08
2022-12-05T19:01:27.933Z,27.50
2022-12-05T19:03:59.077Z,25.20
2022-12-05T19:06:28.519Z,27.00
2022-12-05T19:08:57.053Z,27.02
2022-12-05T19:11:25.127Z,43.28
2022-12-05T19:13:56.274Z,43.10
2022-12-05T19:16:24.427Z,34.87
2022-12-05T19:18:55.525Z,33.20
2022-12-05T19:21:24.149Z,27.40
2022-12-05T19:23:51.637Z,27.02
2022-12-05T19:26:19.617Z,28.23
2022-12-05T19:28:47.152Z,32.90
2022-12-05T19:31:16.386Z,39.10
2022-12-05T19:33:45.375Z,40.65
2022-12-05T19:36:14.097Z,36.58
2022-12-05T19:38:42.354Z,42.70
2022-12-05T19:41:12.233Z,36.53
2022-12-05T19:43:40.773Z,28.38
2022-12-05T19:46:11.176Z,23.70
2022-12-05T19:48:38.972Z,28.15
2022-12-05T19:51:06.867Z,25.75
2022-12-05T19:53:41.162Z,24.75
2022-12-05T19:56:13.100Z,37.35
2022-12-05T19:59:07.884Z,30.42
2022-12-05T20:01:54.198Z,34.65
2022-12-05T20:04:24.715Z,26.30
2022-12-05T20:10:25.953Z,24.83
2022-12-05T20:13:38.507Z,27.55
2022-12-05T20:16:25.597Z,28.10
2022-12-05T20:19:11.875Z,24.90
2022-12-05T20:21:39.288Z,24.67
2022-12-05T20:24:25.730Z,26.63
2022-12-05T20:27:13.342Z,26.20
2022-12-05T20:29:59.633Z,24.63
2022-12-05T20:32:47.512Z,29.35
2022-12-05T20:35:37.104Z,26.60
2022-12-05T20:38:22.942Z,24.45
2022-12-05T20:41:01.697Z,25.35
2022-12-05T20:43:48.159Z,22.02
2022-12-05T20:46:35.135Z,23.42
2022-12-05T20:49:20.951Z,23.88
2022-12-05T20:52:07.081Z,22.45
2022-12-05T20:54:52.995Z,26.13
2022-12-05T20:57:48.306Z,26.70
2022-12-05T21:00:34.102Z,24.33
2022-12-05T21:03:20.302Z,28.15
2022-12-05T21:06:06.990Z,27.45
2022-12-05T21:08:53.617Z,25.38
2022-12-05T21:11:22.797Z,31.98
2022-12-05T21:13:50.597Z,24.50
2022-12-05T21:16:19.312Z,25.52
2022-12-05T21:18:47.282Z,26.77
2022-12-05T21:21:16.442Z,26.30
2022-12-05T21:23:45.447Z,28.80
2022-12-05T21:26:14.542Z,28.80
2022-12-05T21:28:42.782Z,27.88
2022-12-05T21:31:11.563Z,26.00
2022-12-05T21:33:40.083Z,26.52
2022-12-05T21:36:08.165Z,27.83
2022-12-05T21:38:35.784Z,27.70
2022-12-05T21:41:06.240Z,27.30
2022-12-05T21:43:35.130Z,26.23
2022-12-05T21:46:02.822Z,26.75
2022-12-05T21:48:30.838Z,37.25
2022-12-05T21:54:12.003Z,31.30
2022-12-05T22:00:03.571Z,24.80
2022-12-05T22:02:30.973Z,27.73
2022-12-05T22:08:31.300Z,25.40
2022-12-05T22:14:29.956Z,25.25
2022-12-05T22:16:57.643Z,24.40
2022-12-05T22:19:25.016Z,23.35
2022-12-05T22:21:52.834Z,23.42
2022-12-05T22:24:20.190Z,26.50
2022-12-05T22:26:47.805Z,23.70
2022-12-05T22:29:15.154Z,26.38
2022-12-05T22:31:42.969Z,23.35
2022-12-05T22:34:10.402Z,25.35
2022-12-05T22:36:48.014Z,26.33
2022-12-05T22:39:15.367Z,24.23
2022-12-05T22:41:43.098Z,24.85
2022-12-05T22:44:12.721Z,24.25
2022-12-05T22:46:40.574Z,24.15
2022-12-05T22:49:08.002Z,23.67
2022-12-05T22:51:35.632Z,23.30
2022-12-05T22:54:03.108Z,25.90
2022-12-05T22:56:45.703Z,23.50
2022-12-05T22:59:32.525Z,20.88
2022-12-05T23:02:00.136Z,21.25
2022-12-05T23:04:27.636Z,21.85
2022-12-05T23:06:55.415Z,22.77
2022-12-05T23:09:22.840Z,22.17
2022-12-05T23:11:50.577Z,20.45
2022-12-05T23:14:19.909Z,20.35
2022-12-05T23:16:47.626Z,19.30
2022-12-05T23:19:15.129Z,20.55
2022-12-05T23:21:42.818Z,20.05
2022-12-05T23:24:11.573Z,19.67
2022-12-05T23:26:43.902Z,18.85
2022-12-05T23:29:11.928Z,19.58
2022-12-05T23:31:40.254Z,15.35
2022-12-05T23:34:08.076Z,16.55
2022-12-05T23:36:35.845Z,16.30
2022-12-05T23:39:03.587Z,16.13
2022-12-05T23:41:31.302Z,17.67
2022-12-05T23:43:58.700Z,18.80
2022-12-05T23:46:27.466Z,17.90
2022-12-05T23:49:04.061Z,16.48
2022-12-05T23:51:31.822Z,16.38
2022-12-05T23:54:00.401Z,16.45
2022-12-05T23:56:29.189Z,16.70
2022-12-05T23:58:56.714Z,17.45
